sensor_id;sensor_type;location;lat;lon;timestamp;pressure;altitude;pressure_sealevel;temperature;humidity
29985;BME280;17387;42.690;23.328;2022-12-05T00:00:28;47835.66;;;-144.02;98.50
29985;BME280;17387;42.690;23.328;2022-12-05T00:02:54;47790.97;;;-144.02;98.67
29985;BME280;17387;42.690;23.328;2022-12-05T00:05:19;47831.59;;;-144.02;98.66
29985;BME280;17387;42.690;23.328;2022-12-05T00:07:45;47847.84;;;-144.02;98.73
29985;BME280;17387;42.690;23.328;2022-12-05T00:10:11;47815.34;;;-144.02;98.64
29985;BME280;17387;42.690;23.328;2022-12-05T00:12:37;47799.09;;;-144.02;98.60
29985;BME280;17387;42.690;23.328;2022-12-05T00:15:03;47797.06;;;-144.02;98.56
29985;BME280;17387;42.690;23.328;2022-12-05T00:17:30;47839.72;;;-144.02;99.11
29985;BME280;17387;42.690;23.328;2022-12-05T00:19:57;47821.44;;;-144.02;98.86
29985;BME280;17387;42.690;23.328;2022-12-05T00:22:22;47823.47;;;-144.02;99.13
29985;BME280;17387;42.690;23.328;2022-12-05T00:24:48;47831.59;;;-144.02;99.20
29985;BME280;17387;42.690;23.328;2022-12-05T00:27:14;47823.47;;;-144.02;99.30
29985;BME280;17387;42.690;23.328;2022-12-05T00:29:39;47835.66;;;-144.02;99.73
29985;BME280;17387;42.690;23.328;2022-12-05T00:32:04;47795.03;;;-144.02;100.00
29985;BME280;17387;42.690;23.328;2022-12-05T00:34:30;47839.72;;;-144.02;100.00
29985;BME280;17387;42.690;23.328;2022-12-05T00:36:55;47833.63;;;-144.02;100.00
29985;BME280;17387;42.690;23.328;2022-12-05T00:39:21;47831.59;;;-144.02;100.00
29985;BME280;17387;42.690;23.328;2022-12-05T00:41:46;47823.47;;;-144.02;100.00
29985;BME280;17387;42.690;23.328;2022-12-05T00:44:12;47831.59;;;-144.02;100.00
29985;BME280;17387;42.690;23.328;2022-12-05T00:46:38;47817.38;;;-144.02;100.00
29985;BME280;17387;42.690;23.328;2022-12-05T00:49:05;47833.63;;;-144.02;100.00
29985;BME280;17387;42.690;23.328;2022-12-05T00:51:37;47819.41;;;-144.02;100.00
29985;BME280;17387;42.690;23.328;2022-12-05T00:54:06;47855.97;;;-144.02;100.00
29985;BME280;17387;42.690;23.328;2022-12-05T00:56:32;47821.44;;;-144.02;100.00
29985;BME280;17387;42.690;23.328;2022-12-05T00:58:59;47793.00;;;-144.02;100.00
29985;BME280;17387;42.690;23.328;2022-12-05T01:03:55;47819.41;;;-144.02;100.00
29985;BME280;17387;42.690;23.328;2022-12-05T01:06:22;47902.69;;;-144.02;100.00
29985;BME280;17387;42.690;23.328;2022-12-05T01:08:48;47900.66;;;-144.02;100.00
29985;BME280;17387;42.690;23.328;2022-12-05T01:11:17;47831.59;;;-144.02;100.00
29985;BME280;17387;42.690;23.328;2022-12-05T01:13:44;47829.56;;;-144.02;100.00
29985;BME280;17387;42.690;23.328;2022-12-05T01:16:20;47864.09;;;-144.02;100.00
29985;BME280;17387;42.690;23.328;2022-12-05T01:18:47;47823.47;;;-144.02;100.00
29985;BME280;17387;42.690;23.328;2022-12-05T01:21:13;47815.34;;;-144.02;100.00
29985;BME280;17387;42.690;23.328;2022-12-05T01:23:38;47815.34;;;-144.02;100.00
29985;BME280;17387;42.690;23.328;2022-12-05T01:26:06;47811.28;;;-144.02;100.00
29985;BME280;17387;42.690;23.328;2022-12-05T01:28:32;47823.47;;;-144.02;100.00
29985;BME280;17387;42.690;23.328;2022-12-05T01:31:03;47835.66;;;-144.02;100.00
29985;BME280;17387;42.690;23.328;2022-12-05T01:33:29;47819.41;;;-144.02;100.00
29985;BME280;17387;42.690;23.328;2022-12-05T01:35:54;47811.03;;;-144.02;100.00
29985;BME280;17387;42.690;23.328;2022-12-05T01:38:19;47801.13;;;-144.02;100.00
29985;BME280;17387;42.690;23.328;2022-12-05T01:40:45;47821.44;;;-144.02;100.00
29985;BME280;17387;42.690;23.328;2022-12-05T01:43:14;47823.47;;;-144.02;100.00
29985;BME280;17387;42.690;23.328;2022-12-05T01:45:41;47835.66;;;-144.02;100.00
29985;BME280;17387;42.690;23.328;2022-12-05T01:48:18;47858.00;;;-144.02;100.00
29985;BME280;17387;42.690;23.328;2022-12-05T01:50:46;47864.09;;;-144.02;100.00
29985;BME280;17387;42.690;23.328;2022-12-05T01:53:12;47809.25;;;-144.02;100.00
29985;BME280;17387;42.690;23.328;2022-12-05T01:55:37;47811.28;;;-144.02;100.00
29985;BME280;17387;42.690;23.328;2022-12-05T01:58:05;47811.28;;;-144.02;100.00
29985;BME280;17387;42.690;23.328;2022-12-05T02:00:32;47847.84;;;-144.02;100.00
29985;BME280;17387;42.690;23.328;2022-12-05T02:03:03;47819.41;;;-144.02;100.00
29985;BME280;17387;42.690;23.328;2022-12-05T02:05:32;47860.03;;;-144.02;100.00
29985;BME280;17387;42.690;23.328;2022-12-05T02:08:04;47821.44;;;-144.02;100.00
29985;BME280;17387;42.690;23.328;2022-12-05T02:10:35;47831.59;;;-144.02;100.00
29985;BME280;17387;42.690;23.328;2022-12-05T02:15:49;47864.09;;;-144.02;100.00
29985;BME280;17387;42.690;23.328;2022-12-05T02:18:33;47829.56;;;-144.02;100.00
29985;BME280;17387;42.690;23.328;2022-12-05T02:29:54;47827.53;;;-144.02;99.95
29985;BME280;17387;42.690;23.328;2022-12-05T02:45:59;47798.84;;;-144.02;100.00
29985;BME280;17387;42.690;23.328;2022-12-05T02:48:28;47841.75;;;-144.02;99.82
29985;BME280;17387;42.690;23.328;2022-12-05T02:50:55;47807.22;;;-144.02;99.83
29985;BME280;17387;42.690;23.328;2022-12-05T02:53:24;47799.09;;;-144.02;99.86
29985;BME280;17387;42.690;23.328;2022-12-05T02:55:51;47847.84;;;-144.02;100.00
29985;BME280;17387;42.690;23.328;2022-12-05T02:58:30;47835.66;;;-144.02;99.89
29985;BME280;17387;42.690;23.328;2022-12-05T03:00:58;47809.25;;;-144.02;100.00
29985;BME280;17387;42.690;23.328;2022-12-05T03:03:24;47827.53;;;-144.02;100.00
29985;BME280;17387;42.690;23.328;2022-12-05T03:05:55;47839.72;;;-144.02;99.88
29985;BME280;17387;42.690;23.328;2022-12-05T03:08:27;47782.84;;;-144.02;99.69
29985;BME280;17387;42.690;23.328;2022-12-05T03:10:54;47823.47;;;-144.02;99.28
29985;BME280;17387;42.690;23.328;2022-12-05T03:13:27;47795.03;;;-144.02;98.88
29985;BME280;17387;42.690;23.328;2022-12-05T03:16:02;47882.38;;;-144.02;98.49
29985;BME280;17387;42.690;23.328;2022-12-05T03:18:38;47823.47;;;-144.02;98.60
29985;BME280;17387;42.690;23.328;2022-12-05T03:23:48;47807.22;;;-144.02;98.88
29985;BME280;17387;42.690;23.328;2022-12-05T03:31:20;47849.88;;;-144.02;99.00
29985;BME280;17387;42.690;23.328;2022-12-05T03:33:49;47843.78;;;-144.02;98.55
29985;BME280;17387;42.690;23.328;2022-12-05T03:36:17;47853.69;;;-144.02;98.66
29985;BME280;17387;42.690;23.328;2022-12-05T03:38:52;47799.09;;;-144.02;98.38
29985;BME280;17387;42.690;23.328;2022-12-05T03:44:53;47806.97;;;-144.02;97.98
29985;BME280;17387;42.690;23.328;2022-12-05T03:47:46;47872.22;;;-144.02;97.85
29985;BME280;17387;42.690;23.328;2022-12-05T03:50:39;47837.69;;;-144.02;97.81
29985;BME280;17387;42.690;23.328;2022-12-05T03:53:10;47833.63;;;-144.02;97.60
29985;BME280;17387;42.690;23.328;2022-12-05T03:55:38;47851.91;;;-144.02;98.26
29985;BME280;17387;42.690;23.328;2022-12-05T03:58:08;47894.56;;;-144.02;98.21
29985;BME280;17387;42.690;23.328;2022-12-05T04:00:39;47809.25;;;-144.02;97.92
29985;BME280;17387;42.690;23.328;2022-12-05T04:03:19;47829.56;;;-144.02;97.58
29985;BME280;17387;42.690;23.328;2022-12-05T04:05:58;47851.91;;;-144.02;97.83
29985;BME280;17387;42.690;23.328;2022-12-05T04:08:28;47831.34;;;-144.02;98.04
29985;BME280;17387;42.690;23.328;2022-12-05T04:11:00;47835.66;;;-144.02;98.11
29985;BME280;17387;42.690;23.328;2022-12-05T04:13:33;47801.13;;;-144.02;97.83
29985;BME280;17387;42.690;23.328;2022-12-05T04:16:09;47833.63;;;-144.02;97.92
29985;BME280;17387;42.690;23.328;2022-12-05T04:18:59;47800.88;;;-144.02;98.36
29985;BME280;17387;42.690;23.328;2022-12-05T04:21:30;47865.91;;;-144.02;98.26
29985;BME280;17387;42.690;23.328;2022-12-05T04:24:12;47858.00;;;-144.02;98.63
29985;BME280;17387;42.690;23.328;2022-12-05T04:30:11;47794.78;;;-144.02;99.07
29985;BME280;17387;42.690;23.328;2022-12-05T04:35:23;47831.34;;;-144.02;99.10
29985;BME280;17387;42.690;23.328;2022-12-05T04:37:52;47825.25;;;-144.02;99.35
29985;BME280;17387;42.690;23.328;2022-12-05T04:40:24;47821.44;;;-144.02;99.08
29985;BME280;17387;42.690;23.328;2022-12-05T04:42:52;47839.47;;;-144.02;98.96
29985;BME280;17387;42.690;23.328;2022-12-05T04:45:19;47823.22;;;-144.02;98.88
29985;BME280;17387;42.690;23.328;2022-12-05T04:47:54;47839.47;;;-144.02;98.84
29985;BME280;17387;42.690;23.328;2022-12-05T04:50:22;47860.03;;;-144.02;98.58
29985;BME280;17387;42.690;23.328;2022-12-05T04:52:51;47859.78;;;-144.02;98.66
29985;BME280;17387;42.690;23.328;2022-12-05T04:55:22;47827.28;;;-144.02;98.54
29985;BME280;17387;42.690;23.328;2022-12-05T05:00:15;47802.91;;;-144.02;97.87
29985;BME280;17387;42.690;23.328;2022-12-05T05:02:48;47823.47;;;-144.02;97.81
29985;BME280;17387;42.690;23.328;2022-12-05T05:05:16;47843.53;;;-144.02;97.63
29985;BME280;17387;42.690;23.328;2022-12-05T05:07:49;47833.63;;;-144.02;98.05
29985;BME280;17387;42.690;23.328;2022-12-05T05:10:15;47815.34;;;-144.02;98.04
29985;BME280;17387;42.690;23.328;2022-12-05T05:12:42;47790.97;;;-144.02;97.97
29985;BME280;17387;42.690;23.328;2022-12-05T05:15:08;47839.72;;;-144.02;97.72
29985;BME280;17387;42.690;23.328;2022-12-05T05:17:33;47821.44;;;-144.02;97.81
29985;BME280;17387;42.690;23.328;2022-12-05T05:19:59;47823.47;;;-144.02;97.91
29985;BME280;17387;42.690;23.328;2022-12-05T05:22:43;47811.03;;;-144.02;97.46
29985;BME280;17387;42.690;23.328;2022-12-05T05:25:08;47831.59;;;-144.02;97.47
29985;BME280;17387;42.690;23.328;2022-12-05T05:27:33;47813.06;;;-144.02;97.91
29985;BME280;17387;42.690;23.328;2022-12-05T05:29:59;47780.81;;;-144.02;97.99
29985;BME280;17387;42.690;23.328;2022-12-05T05:32:24;47827.53;;;-144.02;97.44
29985;BME280;17387;42.690;23.328;2022-12-05T05:34:49;47778.78;;;-144.02;97.93
29985;BME280;17387;42.690;23.328;2022-12-05T05:37:15;47819.41;;;-144.02;97.68
29985;BME280;17387;42.690;23.328;2022-12-05T05:39:40;47813.31;;;-144.02;97.55
29985;BME280;17387;42.690;23.328;2022-12-05T05:42:06;47849.88;;;-144.02;97.11
29985;BME280;17387;42.690;23.328;2022-12-05T05:44:31;47900.66;;;-144.02;96.81
29985;BME280;17387;42.690;23.328;2022-12-05T05:46:56;47864.09;;;-144.02;96.86
29985;BME280;17387;42.690;23.328;2022-12-05T05:49:22;47811.28;;;-144.02;97.10
29985;BME280;17387;42.690;23.328;2022-12-05T05:51:47;47829.56;;;-144.02;97.19
29985;BME280;17387;42.690;23.328;2022-12-05T05:54:13;47805.19;;;-144.02;97.58
29985;BME280;17387;42.690;23.328;2022-12-05T05:56:38;47817.38;;;-144.02;97.54
29985;BME280;17387;42.690;23.328;2022-12-05T05:59:04;47813.31;;;-144.02;97.63
29985;BME280;17387;42.690;23.328;2022-12-05T06:01:29;47805.19;;;-144.02;97.05
29985;BME280;17387;42.690;23.328;2022-12-05T06:03:56;47831.59;;;-144.02;96.93
29985;BME280;17387;42.690;23.328;2022-12-05T06:06:22;47833.63;;;-144.02;96.70
29985;BME280;17387;42.690;23.328;2022-12-05T06:08:48;47819.16;;;-144.02;96.57
29985;BME280;17387;42.690;23.328;2022-12-05T06:11:17;47817.38;;;-144.02;96.07
29985;BME280;17387;42.690;23.328;2022-12-05T06:13:42;47809.25;;;-144.02;96.25
29985;BME280;17387;42.690;23.328;2022-12-05T06:16:09;47882.38;;;-144.02;96.77
29985;BME280;17387;42.690;23.328;2022-12-05T06:18:36;47874.25;;;-144.02;96.72
29985;BME280;17387;42.690;23.328;2022-12-05T06:21:01;47855.75;;;-144.02;96.77
29985;BME280;17387;42.690;23.328;2022-12-05T06:23:28;47821.44;;;-144.02;96.57
29985;BME280;17387;42.690;23.328;2022-12-05T06:25:55;47815.34;;;-144.02;96.40
29985;BME280;17387;42.690;23.328;2022-12-05T06:28:22;47790.97;;;-144.02;95.78
29985;BME280;17387;42.690;23.328;2022-12-05T06:30:48;47827.53;;;-144.02;95.48
29985;BME280;17387;42.690;23.328;2022-12-05T06:33:13;47827.53;;;-144.02;95.76
29985;BME280;17387;42.690;23.328;2022-12-05T06:35:39;47811.28;;;-144.02;95.78
29985;BME280;17387;42.690;23.328;2022-12-05T06:38:06;47825.50;;;-144.02;95.38
29985;BME280;17387;42.690;23.328;2022-12-05T06:40:32;47801.13;;;-144.02;95.47
29985;BME280;17387;42.690;23.328;2022-12-05T06:42:58;47835.41;;;-144.02;95.18
29985;BME280;17387;42.690;23.328;2022-12-05T06:45:23;47831.34;;;-144.02;94.86
29985;BME280;17387;42.690;23.328;2022-12-05T06:47:52;47839.47;;;-144.02;94.68
29985;BME280;17387;42.690;23.328;2022-12-05T06:50:18;47811.28;;;-144.02;94.46
29985;BME280;17387;42.690;23.328;2022-12-05T06:52:43;47817.13;;;-144.02;94.54
29985;BME280;17387;42.690;23.328;2022-12-05T06:55:09;47821.44;;;-144.02;95.04
29985;BME280;17387;42.690;23.328;2022-12-05T06:57:34;47795.03;;;-144.02;94.82
29985;BME280;17387;42.690;23.328;2022-12-05T07:00:00;47790.72;;;-144.02;94.57
29985;BME280;17387;42.690;23.328;2022-12-05T07:02:44;47790.97;;;-144.02;94.32
29985;BME280;17387;42.690;23.328;2022-12-05T07:05:10;47837.69;;;-144.02;94.24
29985;BME280;17387;42.690;23.328;2022-12-05T07:07:35;47807.22;;;-144.02;93.77
29985;BME280;17387;42.690;23.328;2022-12-05T07:10:01;47813.31;;;-144.02;93.82
29985;BME280;17387;42.690;23.328;2022-12-05T07:12:27;47819.41;;;-144.02;93.60
29985;BME280;17387;42.690;23.328;2022-12-05T07:14:52;47809.25;;;-144.02;92.65
29985;BME280;17387;42.690;23.328;2022-12-05T07:17:19;47772.69;;;-144.02;92.43
29985;BME280;17387;42.690;23.328;2022-12-05T07:19:48;47799.09;;;-144.02;91.92
29985;BME280;17387;42.690;23.328;2022-12-05T07:22:15;47825.50;;;-144.02;93.05
29985;BME280;17387;42.690;23.328;2022-12-05T07:24:41;47835.41;;;-144.02;93.31
29985;BME280;17387;42.690;23.328;2022-12-05T07:27:06;47849.88;;;-144.02;93.59
29985;BME280;17387;42.690;23.328;2022-12-05T07:29:32;47817.13;;;-144.02;92.72
29985;BME280;17387;42.690;23.328;2022-12-05T07:31:57;47809.25;;;-144.02;92.41
29985;BME280;17387;42.690;23.328;2022-12-05T07:34:22;47800.88;;;-144.02;92.91
29985;BME280;17387;42.690;23.328;2022-12-05T07:36:48;47894.56;;;-144.02;93.04
29985;BME280;17387;42.690;23.328;2022-12-05T07:39:13;47823.47;;;-144.02;92.73
29985;BME280;17387;42.690;23.328;2022-12-05T07:41:39;47803.16;;;-144.02;92.33
29985;BME280;17387;42.690;23.328;2022-12-05T07:44:04;47794.78;;;-144.02;92.94
29985;BME280;17387;42.690;23.328;2022-12-05T07:46:30;47825.50;;;-144.02;93.03
29985;BME280;17387;42.690;23.328;2022-12-05T07:48:55;47833.63;;;-144.02;93.44
29985;BME280;17387;42.690;23.328;2022-12-05T07:51:21;47817.38;;;-144.02;93.79
29985;BME280;17387;42.690;23.328;2022-12-05T07:53:47;47811.28;;;-144.02;93.16
29985;BME280;17387;42.690;23.328;2022-12-05T07:56:15;47803.16;;;-144.02;92.56
29985;BME280;17387;42.690;23.328;2022-12-05T07:58:42;47837.69;;;-144.02;93.26
29985;BME280;17387;42.690;23.328;2022-12-05T08:01:20;47786.91;;;-144.02;93.22
29985;BME280;17387;42.690;23.328;2022-12-05T08:03:46;47813.31;;;-144.02;92.85
29985;BME280;17387;42.690;23.328;2022-12-05T08:06:16;47811.03;;;-144.02;92.91
29985;BME280;17387;42.690;23.328;2022-12-05T08:08:42;47790.97;;;-144.02;92.77
29985;BME280;17387;42.690;23.328;2022-12-05T08:11:09;47815.34;;;-144.02;92.66
29985;BME280;17387;42.690;23.328;2022-12-05T08:13:35;47823.47;;;-144.02;92.46
29985;BME280;17387;42.690;23.328;2022-12-05T08:16:06;47809.25;;;-144.02;92.14
29985;BME280;17387;42.690;23.328;2022-12-05T08:18:32;47833.38;;;-144.02;92.01
29985;BME280;17387;42.690;23.328;2022-12-05T08:21:06;47815.09;;;-144.02;92.97
29985;BME280;17387;42.690;23.328;2022-12-05T08:23:32;47878.09;;;-144.02;92.23
29985;BME280;17387;42.690;23.328;2022-12-05T08:26:06;47758.47;;;-144.02;91.63
29985;BME280;17387;42.690;23.328;2022-12-05T08:28:33;47798.84;;;-144.02;91.74
29985;BME280;17387;42.690;23.328;2022-12-05T08:31:07;47819.41;;;-144.02;91.03
29985;BME280;17387;42.690;23.328;2022-12-05T08:33:34;47799.09;;;-144.02;90.46
29985;BME280;17387;42.690;23.328;2022-12-05T08:36:01;47813.31;;;-144.02;90.01
29985;BME280;17387;42.690;23.328;2022-12-05T08:38:26;47801.13;;;-144.02;89.92
29985;BME280;17387;42.690;23.328;2022-12-05T08:40:52;47803.16;;;-144.02;90.60
29985;BME280;17387;42.690;23.328;2022-12-05T08:43:17;47827.53;;;-144.02;89.69
29985;BME280;17387;42.690;23.328;2022-12-05T08:45:52;47809.25;;;-144.02;88.72
29985;BME280;17387;42.690;23.328;2022-12-05T08:48:18;47799.09;;;-144.02;88.46
29985;BME280;17387;42.690;23.328;2022-12-05T08:50:44;47778.78;;;-144.02;88.20
29985;BME280;17387;42.690;23.328;2022-12-05T08:53:09;47800.88;;;-144.02;87.94
29985;BME280;17387;42.690;23.328;2022-12-05T08:55:35;47780.81;;;-144.02;87.54
29985;BME280;17387;42.690;23.328;2022-12-05T08:58:01;47780.56;;;-144.02;88.30
29985;BME280;17387;42.690;23.328;2022-12-05T09:00:26;47797.06;;;-144.02;88.77
29985;BME280;17387;42.690;23.328;2022-12-05T09:02:51;47776.75;;;-144.02;88.96
29985;BME280;17387;42.690;23.328;2022-12-05T09:05:18;47758.47;;;-144.02;88.35
29985;BME280;17387;42.690;23.328;2022-12-05T09:07:43;47768.63;;;-144.02;88.39
29985;BME280;17387;42.690;23.328;2022-12-05T09:10:09;47819.41;;;-144.02;88.47
29985;BME280;17387;42.690;23.328;2022-12-05T09:12:36;47815.34;;;-144.02;88.42
29985;BME280;17387;42.690;23.328;2022-12-05T09:15:01;47780.81;;;-144.02;87.21
29985;BME280;17387;42.690;23.328;2022-12-05T09:17:27;47799.09;;;-144.02;86.54
29985;BME280;17387;42.690;23.328;2022-12-05T09:19:52;47778.53;;;-144.02;85.94
29985;BME280;17387;42.690;23.328;2022-12-05T09:22:18;47806.97;;;-144.02;86.05
29985;BME280;17387;42.690;23.328;2022-12-05T09:24:43;47825.50;;;-144.02;85.84
29985;BME280;17387;42.690;23.328;2022-12-05T09:27:09;47823.22;;;-144.02;85.06
29985;BME280;17387;42.690;23.328;2022-12-05T09:29:34;47804.94;;;-144.02;83.48
29985;BME280;17387;42.690;23.328;2022-12-05T09:32:00;47804.94;;;-144.02;83.20
29985;BME280;17387;42.690;23.328;2022-12-05T09:34:25;47780.56;;;-144.02;81.49
29985;BME280;17387;42.690;23.328;2022-12-05T09:36:51;47780.56;;;-144.02;80.50
29985;BME280;17387;42.690;23.328;2022-12-05T09:39:17;47768.38;;;-144.02;81.42
29985;BME280;17387;42.690;23.328;2022-12-05T09:55:29;47802.91;;;-144.02;82.14
29985;BME280;17387;42.690;23.328;2022-12-05T09:58:01;47811.03;;;-144.02;81.39
29985;BME280;17387;42.690;23.328;2022-12-05T10:00:29;47778.53;;;-144.02;81.15
29985;BME280;17387;42.690;23.328;2022-12-05T10:06:12;47819.16;;;-144.02;82.63
29985;BME280;17387;42.690;23.328;2022-12-05T10:14:41;47802.91;;;-144.02;83.01
29985;BME280;17387;42.690;23.328;2022-12-05T10:17:30;47778.53;;;-144.02;83.47
29985;BME280;17387;42.690;23.328;2022-12-05T10:19:58;47778.53;;;-144.02;84.12
29985;BME280;17387;42.690;23.328;2022-12-05T10:22:43;47786.66;;;-144.02;84.09
29985;BME280;17387;42.690;23.328;2022-12-05T10:25:11;47790.72;;;-144.02;83.60
29985;BME280;17387;42.690;23.328;2022-12-05T10:27:42;47796.81;;;-144.02;82.89
29985;BME280;17387;42.690;23.328;2022-12-05T10:30:13;47827.53;;;-144.02;83.19
29985;BME280;17387;42.690;23.328;2022-12-05T10:33:00;47786.66;;;-144.02;83.33
29985;BME280;17387;42.690;23.328;2022-12-05T10:35:35;47804.94;;;-144.02;83.55
29985;BME280;17387;42.690;23.328;2022-12-05T10:38:08;47839.47;;;-144.02;83.26
29985;BME280;17387;42.690;23.328;2022-12-05T10:40:37;47806.97;;;-144.02;83.80
29985;BME280;17387;42.690;23.328;2022-12-05T10:43:05;47778.53;;;-144.02;83.66
29985;BME280;17387;42.690;23.328;2022-12-05T10:45:34;47782.59;;;-144.02;83.35
29985;BME280;17387;42.690;23.328;2022-12-05T10:48:04;47792.75;;;-144.02;83.15
29985;BME280;17387;42.690;23.328;2022-12-05T10:50:35;47802.91;;;-144.02;82.50
29985;BME280;17387;42.690;23.328;2022-12-05T10:53:03;47825.25;;;-144.02;82.11
29985;BME280;17387;42.690;23.328;2022-12-05T10:55:49;47823.22;;;-144.02;82.90
29985;BME280;17387;42.690;23.328;2022-12-05T10:58:26;47786.66;;;-144.02;83.25
29985;BME280;17387;42.690;23.328;2022-12-05T11:01:12;47746.03;;;-144.02;83.75
29985;BME280;17387;42.690;23.328;2022-12-05T11:03:41;47902.47;;;-144.02;84.36
29985;BME280;17387;42.690;23.328;2022-12-05T11:06:17;47798.84;;;-144.02;84.79
29985;BME280;17387;42.690;23.328;2022-12-05T11:08:55;47766.34;;;-144.02;84.51
29985;BME280;17387;42.690;23.328;2022-12-05T11:11:24;47807.22;;;-144.02;84.56
29985;BME280;17387;42.690;23.328;2022-12-05T11:18:51;47741.97;;;-144.02;85.77
29985;BME280;17387;42.690;23.328;2022-12-05T11:21:18;47806.97;;;-144.02;86.28
29985;BME280;17387;42.690;23.328;2022-12-05T11:23:44;47776.50;;;-144.02;85.48
29985;BME280;17387;42.690;23.328;2022-12-05T11:26:32;47829.31;;;-144.02;84.93
29985;BME280;17387;42.690;23.328;2022-12-05T11:28:59;47758.22;;;-144.02;84.82
29985;BME280;17387;42.690;23.328;2022-12-05T11:31:27;47766.34;;;-144.02;85.48
29985;BME280;17387;42.690;23.328;2022-12-05T11:34:13;47802.91;;;-144.02;85.24
29985;BME280;17387;42.690;23.328;2022-12-05T11:36:49;47782.59;;;-144.02;86.14
29985;BME280;17387;42.690;23.328;2022-12-05T11:39:16;47786.66;;;-144.02;86.21
29985;BME280;17387;42.690;23.328;2022-12-05T11:47:27;47813.31;;;-144.02;85.48
29985;BME280;17387;42.690;23.328;2022-12-05T11:53:00;47772.69;;;-144.02;85.22
29985;BME280;17387;42.690;23.328;2022-12-05T11:55:32;47799.09;;;-144.02;85.04
29985;BME280;17387;42.690;23.328;2022-12-05T12:04:22;47794.78;;;-144.02;86.09
29985;BME280;17387;42.690;23.328;2022-12-05T12:14:42;47786.66;;;-144.02;86.47
29985;BME280;17387;42.690;23.328;2022-12-05T12:17:41;47790.72;;;-144.02;86.24
29985;BME280;17387;42.690;23.328;2022-12-05T12:33:39;47739.94;;;-144.02;87.02
29985;BME280;17387;42.690;23.328;2022-12-05T12:36:27;47802.91;;;-144.02;87.25
29985;BME280;17387;42.690;23.328;2022-12-05T12:52:54;47809.00;;;-144.02;87.80
29985;BME280;17387;42.690;23.328;2022-12-05T12:58:49;47827.53;;;-144.02;87.63
29985;BME280;17387;42.690;23.328;2022-12-05T13:04:09;47788.69;;;-144.02;89.19
29985;BME280;17387;42.690;23.328;2022-12-05T13:06:55;47795.03;;;-144.02;89.28
29985;BME280;17387;42.690;23.328;2022-12-05T13:10:06;47776.50;;;-144.02;89.14
29985;BME280;17387;42.690;23.328;2022-12-05T13:12:32;47819.16;;;-144.02;88.90
29985;BME280;17387;42.690;23.328;2022-12-05T13:15:04;47859.78;;;-144.02;89.42
29985;BME280;17387;42.690;23.328;2022-12-05T13:17:32;47792.75;;;-144.02;88.65
29985;BME280;17387;42.690;23.328;2022-12-05T13:19:58;47798.84;;;-144.02;89.14
29985;BME280;17387;42.690;23.328;2022-12-05T13:22:26;47815.09;;;-144.02;90.07
29985;BME280;17387;42.690;23.328;2022-12-05T13:24:53;47815.34;;;-144.02;90.11
29985;BME280;17387;42.690;23.328;2022-12-05T13:27:24;47813.06;;;-144.02;90.60
29985;BME280;17387;42.690;23.328;2022-12-05T13:29:57;47813.06;;;-144.02;90.69
29985;BME280;17387;42.690;23.328;2022-12-05T13:34:49;47772.44;;;-144.02;90.31
29985;BME280;17387;42.690;23.328;2022-12-05T13:37:26;47827.28;;;-144.02;90.53
29985;BME280;17387;42.690;23.328;2022-12-05T13:40:38;47778.53;;;-144.02;90.53
29985;BME280;17387;42.690;23.328;2022-12-05T13:43:31;47786.66;;;-144.02;90.84
29985;BME280;17387;42.690;23.328;2022-12-05T13:46:08;47807.22;;;-144.02;90.45
29985;BME280;17387;42.690;23.328;2022-12-05T13:48:43;47782.84;;;-144.02;90.80
29985;BME280;17387;42.690;23.328;2022-12-05T13:51:27;47794.78;;;-144.02;91.29
29985;BME280;17387;42.690;23.328;2022-12-05T13:54:24;47825.25;;;-144.02;91.02
29985;BME280;17387;42.690;23.328;2022-12-05T13:56:56;47811.03;;;-144.02;91.07
29985;BME280;17387;42.690;23.328;2022-12-05T14:00:00;47795.03;;;-144.02;91.10
29985;BME280;17387;42.690;23.328;2022-12-05T14:07:49;47851.66;;;-144.02;91.14
29985;BME280;17387;42.690;23.328;2022-12-05T14:10:15;47770.66;;;-144.02;91.41
29985;BME280;17387;42.690;23.328;2022-12-05T14:12:57;47782.59;;;-144.02;91.55
29985;BME280;17387;42.690;23.328;2022-12-05T14:15:37;47853.69;;;-144.02;91.51
29985;BME280;17387;42.690;23.328;2022-12-05T14:34:57;47819.41;;;-144.02;91.56
29985;BME280;17387;42.690;23.328;2022-12-05T14:37:35;47847.84;;;-144.02;91.85
29985;BME280;17387;42.690;23.328;2022-12-05T14:40:15;47803.16;;;-144.02;91.93
29985;BME280;17387;42.690;23.328;2022-12-05T14:43:03;47811.28;;;-144.02;92.42
29985;BME280;17387;42.690;23.328;2022-12-05T14:45:38;47894.56;;;-144.02;92.38
29985;BME280;17387;42.690;23.328;2022-12-05T14:50:48;47817.38;;;-144.02;92.27
29985;BME280;17387;42.690;23.328;2022-12-05T14:55:49;47847.59;;;-144.02;93.50
29985;BME280;17387;42.690;23.328;2022-12-05T15:04:05;47807.22;;;-144.02;92.38
29985;BME280;17387;42.690;23.328;2022-12-05T15:06:34;47819.41;;;-144.02;92.20
29985;BME280;17387;42.690;23.328;2022-12-05T15:09:05;47813.31;;;-144.02;92.16
29985;BME280;17387;42.690;23.328;2022-12-05T15:11:32;47892.53;;;-144.02;91.90
29985;BME280;17387;42.690;23.328;2022-12-05T15:14:16;47796.81;;;-144.02;92.35
29985;BME280;17387;42.690;23.328;2022-12-05T15:16:44;47774.72;;;-144.02;92.24
29985;BME280;17387;42.690;23.328;2022-12-05T15:19:17;47823.22;;;-144.02;92.21
29985;BME280;17387;42.690;23.328;2022-12-05T15:21:48;47807.22;;;-144.02;91.99
29985;BME280;17387;42.690;23.328;2022-12-05T15:24:18;47817.38;;;-144.02;92.01
29985;BME280;17387;42.690;23.328;2022-12-05T15:26:56;47819.41;;;-144.02;92.07
29985;BME280;17387;42.690;23.328;2022-12-05T15:29:26;47835.66;;;-144.02;92.16